sensor_id;sensor_type;location;lat;lon;timestamp;P1;P2;P0
26720;PMS1003;15950;51.112;6.966;2024-02-04T00:02:09;002;001;
26720;PMS1003;15950;51.112;6.966;2024-02-04T00:05:09;000;000;
26720;PMS1003;15950;51.112;6.966;2024-02-04T00:08:09;000;000;
26720;PMS1003;15950;51.112;6.966;2024-02-04T00:11:09;000;000;
26720;PMS1003;15950;51.112;6.966;2024-02-04T00:14:09;000;000;
26720;PMS1003;15950;51.112;6.966;2024-02-04T00:17:09;000;000;
26720;PMS1003;15950;51.112;6.966;2024-02-04T00:20:09;000;000;
26720;PMS1003;15950;51.112;6.966;2024-02-04T00:23:09;000;000;
26720;PMS1003;15950;51.112;6.966;2024-02-04T00:26:09;000;000;
26720;PMS1003;15950;51.112;6.966;2024-02-04T00:29:09;000;000;
26720;PMS1003;15950;51.112;6.966;2024-02-04T00:32:09;000;000;
26720;PMS1003;15950;51.112;6.966;2024-02-04T00:35:09;000;000;
26720;PMS1003;15950;51.112;6.966;2024-02-04T00:38:09;000;000;
26720;PMS1003;15950;51.112;6.966;2024-02-04T00:41:09;000;000;
26720;PMS1003;15950;51.112;6.966;2024-02-04T00:44:09;000;000;
26720;PMS1003;15950;51.112;6.966;2024-02-04T00:47:09;000;000;
26720;PMS1003;15950;51.112;6.966;2024-02-04T00:50:09;003;003;
26720;PMS1003;15950;51.112;6.966;2024-02-04T00:53:09;000;000;
26720;PMS1003;15950;51.112;6.966;2024-02-04T00:56:09;000;000;
26720;PMS1003;15950;51.112;6.966;2024-02-04T00:59:09;002;001;
26720;PMS1003;15950;51.112;6.966;2024-02-04T01:02:09;002;001;
26720;PMS1003;15950;51.112;6.966;2024-02-04T01:05:09;000;000;
26720;PMS1003;15950;51.112;6.966;2024-02-04T01:08:09;002;001;
26720;PMS1003;15950;51.112;6.966;2024-02-04T01:11:09;003;002;
26720;PMS1003;15950;51.112;6.966;2024-02-04T01:14:09;002;001;
26720;PMS1003;15950;51.112;6.966;2024-02-04T01:17:09;003;002;
26720;PMS1003;15950;51.112;6.966;2024-02-04T01:20:09;003;002;
26720;PMS1003;15950;51.112;6.966;2024-02-04T01:23:09;003;002;
26720;PMS1003;15950;51.112;6.966;2024-02-04T01:26:09;002;001;
26720;PMS1003;15950;51.112;6.966;2024-02-04T01:29:09;003;002;
26720;PMS1003;15950;51.112;6.966;2024-02-04T01:32:09;002;002;
26720;PMS1003;15950;51.112;6.966;2024-02-04T01:35:09;000;000;
26720;PMS1003;15950;51.112;6.966;2024-02-04T01:38:09;002;001;
26720;PMS1003;15950;51.112;6.966;2024-02-04T01:41:09;000;000;
26720;PMS1003;15950;51.112;6.966;2024-02-04T01:44:09;002;001;
26720;PMS1003;15950;51.112;6.966;2024-02-04T01:47:09;002;001;
26720;PMS1003;15950;51.112;6.966;2024-02-04T01:50:09;000;000;
26720;PMS1003;15950;51.112;6.966;2024-02-04T01:53:09;000;000;
26720;PMS1003;15950;51.112;6.966;2024-02-04T01:56:10;000;000;
26720;PMS1003;15950;51.112;6.966;2024-02-04T01:59:09;000;000;
26720;PMS1003;15950;51.112;6.966;2024-02-04T02:02:09;000;000;
26720;PMS1003;15950;51.112;6.966;2024-02-04T02:05:09;000;000;
26720;PMS1003;15950;51.112;6.966;2024-02-04T02:08:09;000;000;
26720;PMS1003;15950;51.112;6.966;2024-02-04T02:14:11;000;000;
26720;PMS1003;15950;51.112;6.966;2024-02-04T02:17:13;000;000;
26720;PMS1003;15950;51.112;6.966;2024-02-04T02:20:12;002;001;
26720;PMS1003;15950;51.112;6.966;2024-02-04T02:23:14;000;000;
26720;PMS1003;15950;51.112;6.966;2024-02-04T02:26:09;000;000;
26720;PMS1003;15950;51.112;6.966;2024-02-04T02:29:09;000;000;
26720;PMS1003;15950;51.112;6.966;2024-02-04T02:32:09;000;000;
26720;PMS1003;15950;51.112;6.966;2024-02-04T02:35:10;000;000;
26720;PMS1003;15950;51.112;6.966;2024-02-04T02:41:09;000;000;
26720;PMS1003;15950;51.112;6.966;2024-02-04T02:44:09;000;000;
26720;PMS1003;15950;51.112;6.966;2024-02-04T02:47:09;000;000;
26720;PMS1003;15950;51.112;6.966;2024-02-04T02:50:09;000;000;
26720;PMS1003;15950;51.112;6.966;2024-02-04T02:53:09;001;001;
26720;PMS1003;15950;51.112;6.966;2024-02-04T02:56:09;001;001;
26720;PMS1003;15950;51.112;6.966;2024-02-04T02:59:09;000;000;
26720;PMS1003;15950;51.112;6.966;2024-02-04T03:02:09;002;001;
26720;PMS1003;15950;51.112;6.966;2024-02-04T03:05:09;000;000;
26720;PMS1003;15950;51.112;6.966;2024-02-04T03:08:09;000;000;
26720;PMS1003;15950;51.112;6.966;2024-02-04T03:11:09;000;000;
26720;PMS1003;15950;51.112;6.966;2024-02-04T03:14:09;000;000;
26720;PMS1003;15950;51.112;6.966;2024-02-04T03:17:09;000;000;
26720;PMS1003;15950;51.112;6.966;2024-02-04T03:20:09;000;000;
26720;PMS1003;15950;51.112;6.966;2024-02-04T03:23:09;000;000;
26720;PMS1003;15950;51.112;6.966;2024-02-04T03:26:16;000;000;
26720;PMS1003;15950;51.112;6.966;2024-02-04T03:29:09;000;000;
26720;PMS1003;15950;51.112;6.966;2024-02-04T03:32:12;000;000;
26720;PMS1003;15950;51.112;6.966;2024-02-04T03:35:09;003;002;
26720;PMS1003;15950;51.112;6.966;2024-02-04T03:38:09;000;000;
26720;PMS1003;15950;51.112;6.966;2024-02-04T03:41:09;000;000;
26720;PMS1003;15950;51.112;6.966;2024-02-04T03:44:09;001;001;
26720;PMS1003;15950;51.112;6.966;2024-02-04T03:47:09;001;001;
26720;PMS1003;15950;51.112;6.966;2024-02-04T03:50:09;000;000;
26720;PMS1003;15950;51.112;6.966;2024-02-04T03:53:09;000;000;
26720;PMS1003;15950;51.112;6.966;2024-02-04T03:56:09;005;003;
26720;PMS1003;15950;51.112;6.966;2024-02-04T03:59:09;003;002;
26720;PMS1003;15950;51.112;6.966;2024-02-04T04:02:09;002;001;
26720;PMS1003;15950;51.112;6.966;2024-02-04T04:05:12;001;001;
26720;PMS1003;15950;51.112;6.966;2024-02-04T04:08:09;006;005;
26720;PMS1003;15950;51.112;6.966;2024-02-04T04:11:09;003;002;
26720;PMS1003;15950;51.112;6.966;2024-02-04T04:14:09;006;005;
26720;PMS1003;15950;51.112;6.966;2024-02-04T04:17:09;002;002;
26720;PMS1003;15950;51.112;6.966;2024-02-04T04:20:10;003;002;
26720;PMS1003;15950;51.112;6.966;2024-02-04T04:23:09;006;004;
26720;PMS1003;15950;51.112;6.966;2024-02-04T04:26:09;005;003;
26720;PMS1003;15950;51.112;6.966;2024-02-04T04:29:09;003;002;
26720;PMS1003;15950;51.112;6.966;2024-02-04T04:32:09;005;003;
26720;PMS1003;15950;51.112;6.966;2024-02-04T04:35:09;007;005;
26720;PMS1003;15950;51.112;6.966;2024-02-04T04:38:09;007;006;
26720;PMS1003;15950;51.112;6.966;2024-02-04T04:41:09;003;002;
26720;PMS1003;15950;51.112;6.966;2024-02-04T04:44:09;005;003;
26720;PMS1003;15950;51.112;6.966;2024-02-04T04:47:09;001;001;
26720;PMS1003;15950;51.112;6.966;2024-02-04T04:50:09;002;001;
26720;PMS1003;15950;51.112;6.966;2024-02-04T04:53:09;003;002;
26720;PMS1003;15950;51.112;6.966;2024-02-04T04:56:09;002;001;
26720;PMS1003;15950;51.112;6.966;2024-02-04T04:59:09;003;002;
26720;PMS1003;15950;51.112;6.966;2024-02-04T05:02:09;002;001;
26720;PMS1003;15950;51.112;6.966;2024-02-04T05:05:12;005;003;
26720;PMS1003;15950;51.112;6.966;2024-02-04T05:08:09;005;004;
26720;PMS1003;15950;51.112;6.966;2024-02-04T05:11:09;004;003;
26720;PMS1003;15950;51.112;6.966;2024-02-04T05:14:09;005;003;
26720;PMS1003;15950;51.112;6.966;2024-02-04T05:17:09;007;006;
26720;PMS1003;15950;51.112;6.966;2024-02-04T05:20:09;004;003;
26720;PMS1003;15950;51.112;6.966;2024-02-04T05:23:09;002;001;
26720;PMS1003;15950;51.112;6.966;2024-02-04T05:26:09;009;006;
26720;PMS1003;15950;51.112;6.966;2024-02-04T05:29:09;003;002;
26720;PMS1003;15950;51.112;6.966;2024-02-04T05:32:09;007;006;
26720;PMS1003;15950;51.112;6.966;2024-02-04T05:35:09;005;003;
26720;PMS1003;15950;51.112;6.966;2024-02-04T05:38:09;006;005;
26720;PMS1003;15950;51.112;6.966;2024-02-04T05:41:09;006;005;
26720;PMS1003;15950;51.112;6.966;2024-02-04T05:44:09;005;004;
26720;PMS1003;15950;51.112;6.966;2024-02-04T05:47:09;011;008;
26720;PMS1003;15950;51.112;6.966;2024-02-04T05:50:09;005;003;
26720;PMS1003;15950;51.112;6.966;2024-02-04T05:53:09;007;006;
26720;PMS1003;15950;51.112;6.966;2024-02-04T05:56:09;005;004;
26720;PMS1003;15950;51.112;6.966;2024-02-04T05:59:09;007;006;
26720;PMS1003;15950;51.112;6.966;2024-02-04T06:02:09;005;003;
26720;PMS1003;15950;51.112;6.966;2024-02-04T06:05:09;005;004;
26720;PMS1003;15950;51.112;6.966;2024-02-04T06:08:09;004;003;
26720;PMS1003;15950;51.112;6.966;2024-02-04T06:11:10;004;003;
26720;PMS1003;15950;51.112;6.966;2024-02-04T06:14:09;009;006;
26720;PMS1003;15950;51.112;6.966;2024-02-04T06:17:09;005;003;
26720;PMS1003;15950;51.112;6.966;2024-02-04T06:20:09;005;003;
26720;PMS1003;15950;51.112;6.966;2024-02-04T06:23:09;013;009;
26720;PMS1003;15950;51.112;6.966;2024-02-04T06:26:09;007;005;
26720;PMS1003;15950;51.112;6.966;2024-02-04T06:29:10;005;004;
26720;PMS1003;15950;51.112;6.966;2024-02-04T06:32:09;002;002;
26720;PMS1003;15950;51.112;6.966;2024-02-04T06:35:09;006;005;
26720;PMS1003;15950;51.112;6.966;2024-02-04T06:38:09;003;002;
26720;PMS1003;15950;51.112;6.966;2024-02-04T06:41:09;004;003;
26720;PMS1003;15950;51.112;6.966;2024-02-04T06:44:10;003;002;
26720;PMS1003;15950;51.112;6.966;2024-02-04T06:47:09;006;005;
26720;PMS1003;15950;51.112;6.966;2024-02-04T06:50:09;003;002;
26720;PMS1003;15950;51.112;6.966;2024-02-04T06:53:09;005;003;
26720;PMS1003;15950;51.112;6.966;2024-02-04T06:56:09;002;001;
26720;PMS1003;15950;51.112;6.966;2024-02-04T06:59:09;002;001;
26720;PMS1003;15950;51.112;6.966;2024-02-04T07:02:09;000;000;
26720;PMS1003;15950;51.112;6.966;2024-02-04T07:05:09;002;001;
26720;PMS1003;15950;51.112;6.966;2024-02-04T07:08:09;002;001;
26720;PMS1003;15950;51.112;6.966;2024-02-04T07:11:09;000;000;
26720;PMS1003;15950;51.112;6.966;2024-02-04T07:14:09;000;000;
26720;PMS1003;15950;51.112;6.966;2024-02-04T07:17:09;000;000;
26720;PMS1003;15950;51.112;6.966;2024-02-04T07:20:09;002;001;
26720;PMS1003;15950;51.112;6.966;2024-02-04T07:23:09;000;000;
26720;PMS1003;15950;51.112;6.966;2024-02-04T07:26:09;003;003;
26720;PMS1003;15950;51.112;6.966;2024-02-04T07:29:09;002;001;
26720;PMS1003;15950;51.112;6.966;2024-02-04T07:32:09;003;002;
26720;PMS1003;15950;51.112;6.966;2024-02-04T07:35:09;001;001;
26720;PMS1003;15950;51.112;6.966;2024-02-04T07:38:09;000;000;
26720;PMS1003;15950;51.112;6.966;2024-02-04T07:41:09;002;001;
26720;PMS1003;15950;51.112;6.966;2024-02-04T07:44:09;000;000;
26720;PMS1003;15950;51.112;6.966;2024-02-04T07:47:09;000;000;
26720;PMS1003;15950;51.112;6.966;2024-02-04T07:50:09;000;000;
26720;PMS1003;15950;51.112;6.966;2024-02-04T07:53:09;000;000;
26720;PMS1003;15950;51.112;6.966;2024-02-04T07:56:09;000;000;
26720;PMS1003;15950;51.112;6.966;2024-02-04T07:59:09;000;000;
26720;PMS1003;15950;51.112;6.966;2024-02-04T08:02:09;000;000;
26720;PMS1003;15950;51.112;6.966;2024-02-04T08:05:09;000;000;
26720;PMS1003;15950;51.112;6.966;2024-02-04T08:08:09;000;000;
26720;PMS1003;15950;51.112;6.966;2024-02-04T08:11:09;000;000;
26720;PMS1003;15950;51.112;6.966;2024-02-04T08:14:09;000;000;
26720;PMS1003;15950;51.112;6.966;2024-02-04T08:17:09;000;000;
26720;PMS1003;15950;51.112;6.966;2024-02-04T08:20:09;000;000;
26720;PMS1003;15950;51.112;6.966;2024-02-04T08:23:09;000;000;
26720;PMS1003;15950;51.112;6.966;2024-02-04T08:26:09;000;000;
26720;PMS1003;15950;51.112;6.966;2024-02-04T08:29:09;000;000;
26720;PMS1003;15950;51.112;6.966;2024-02-04T08:32:09;000;000;
26720;PMS1003;15950;51.112;6.966;2024-02-04T08:35:09;000;000;
26720;PMS1003;15950;51.112;6.966;2024-02-04T08:38:09;000;000;
26720;PMS1003;15950;51.112;6.966;2024-02-04T08:41:09;000;000;
26720;PMS1003;15950;51.112;6.966;2024-02-04T08:44:09;000;000;
26720;PMS1003;15950;51.112;6.966;2024-02-04T08:47:09;000;000;
26720;PMS1003;15950;51.112;6.966;2024-02-04T08:50:09;001;001;
26720;PMS1003;15950;51.112;6.966;2024-02-04T08:53:09;000;000;
26720;PMS1003;15950;51.112;6.966;2024-02-04T08:56:09;000;000;
26720;PMS1003;15950;51.112;6.966;2024-02-04T08:59:09;000;000;
26720;PMS1003;15950;51.112;6.966;2024-02-04T09:02:09;000;000;
26720;PMS1003;15950;51.112;6.966;2024-02-04T09:05:09;000;000;
26720;PMS1003;15950;51.112;6.966;2024-02-04T09:08:09;000;000;
26720;PMS1003;15950;51.112;6.966;2024-02-04T09:11:12;002;001;
26720;PMS1003;15950;51.112;6.966;2024-02-04T09:14:09;000;000;
26720;PMS1003;15950;51.112;6.966;2024-02-04T09:17:09;000;000;
26720;PMS1003;15950;51.112;6.966;2024-02-04T09:20:09;000;000;
26720;PMS1003;15950;51.112;6.966;2024-02-04T09:23:09;000;000;
26720;PMS1003;15950;51.112;6.966;2024-02-04T09:26:09;000;000;
26720;PMS1003;15950;51.112;6.966;2024-02-04T09:29:09;000;000;
26720;PMS1003;15950;51.112;6.966;2024-02-04T09:32:09;000;000;
26720;PMS1003;15950;51.112;6.966;2024-02-04T09:35:09;000;000;
26720;PMS1003;15950;51.112;6.966;2024-02-04T09:38:09;000;000;
26720;PMS1003;15950;51.112;6.966;2024-02-04T09:41:09;000;000;
26720;PMS1003;15950;51.112;6.966;2024-02-04T09:44:09;000;000;
26720;PMS1003;15950;51.112;6.966;2024-02-04T09:47:09;000;000;
26720;PMS1003;15950;51.112;6.966;2024-02-04T09:50:09;000;000;
26720;PMS1003;15950;51.112;6.966;2024-02-04T09:53:09;000;000;
26720;PMS1003;15950;51.112;6.966;2024-02-04T09:56:09;000;000;
26720;PMS1003;15950;51.112;6.966;2024-02-04T09:59:09;000;000;
26720;PMS1003;15950;51.112;6.966;2024-02-04T10:02:09;000;000;
26720;PMS1003;15950;51.112;6.966;2024-02-04T10:05:09;000;000;
26720;PMS1003;15950;51.112;6.966;2024-02-04T10:08:09;000;000;
26720;PMS1003;15950;51.112;6.966;2024-02-04T10:11:09;000;000;
26720;PMS1003;15950;51.112;6.966;2024-02-04T10:14:09;000;000;
26720;PMS1003;15950;51.112;6.966;2024-02-04T10:17:09;000;000;
26720;PMS1003;15950;51.112;6.966;2024-02-04T10:20:09;000;000;
26720;PMS1003;15950;51.112;6.966;2024-02-04T10:23:09;000;000;
26720;PMS1003;15950;51.112;6.966;2024-02-04T10:26:09;000;000;
26720;PMS1003;15950;51.112;6.966;2024-02-04T10:29:09;000;000;
26720;PMS1003;15950;51.112;6.966;2024-02-04T10:32:09;000;000;
26720;PMS1003;15950;51.112;6.966;2024-02-04T10:35:09;000;000;
26720;PMS1003;15950;51.112;6.966;2024-02-04T10:38:09;000;000;
26720;PMS1003;15950;51.112;6.966;2024-02-04T10:41:11;000;000;
26720;PMS1003;15950;51.112;6.966;2024-02-04T10:44:09;000;000;
26720;PMS1003;15950;51.112;6.966;2024-02-04T10:47:09;002;001;
26720;PMS1003;15950;51.112;6.966;2024-02-04T10:50:09;000;000;
26720;PMS1003;15950;51.112;6.966;2024-02-04T10:53:09;000;000;
26720;PMS1003;15950;51.112;6.966;2024-02-04T10:56:52;000;000;
26720;PMS1003;15950;51.112;6.966;2024-02-04T10:59:09;001;001;
26720;PMS1003;15950;51.112;6.966;2024-02-04T11:02:09;000;000;
26720;PMS1003;15950;51.112;6.966;2024-02-04T11:05:09;000;000;
26720;PMS1003;15950;51.112;6.966;2024-02-04T11:08:09;000;000;
26720;PMS1003;15950;51.112;6.966;2024-02-04T11:11:09;000;000;
26720;PMS1003;15950;51.112;6.966;2024-02-04T11:14:13;002;001;
26720;PMS1003;15950;51.112;6.966;2024-02-04T11:26:09;000;000;
26720;PMS1003;15950;51.112;6.966;2024-02-04T11:29:09;000;000;
26720;PMS1003;15950;51.112;6.966;2024-02-04T11:32:09;000;000;
26720;PMS1003;15950;51.112;6.966;2024-02-04T11:35:09;003;002;
26720;PMS1003;15950;51.112;6.966;2024-02-04T11:38:09;001;001;
26720;PMS1003;15950;51.112;6.966;2024-02-04T11:41:09;000;000;
26720;PMS1003;15950;51.112;6.966;2024-02-04T11:44:09;000;000;
26720;PMS1003;15950;51.112;6.966;2024-02-04T11:47:09;000;000;
26720;PMS1003;15950;51.112;6.966;2024-02-04T11:50:09;000;000;
26720;PMS1003;15950;51.112;6.966;2024-02-04T11:53:09;000;000;
26720;PMS1003;15950;51.112;6.966;2024-02-04T11:56:09;000;000;
26720;PMS1003;15950;51.112;6.966;2024-02-04T11:59:12;000;000;
26720;PMS1003;15950;51.112;6.966;2024-02-04T12:02:09;000;000;
26720;PMS1003;15950;51.112;6.966;2024-02-04T12:05:09;000;000;
26720;PMS1003;15950;51.112;6.966;2024-02-04T12:08:09;000;000;
26720;PMS1003;15950;51.112;6.966;2024-02-04T12:11:09;000;000;
26720;PMS1003;15950;51.112;6.966;2024-02-04T12:14:09;000;000;
26720;PMS1003;15950;51.112;6.966;2024-02-04T12:17:09;001;001;
26720;PMS1003;15950;51.112;6.966;2024-02-04T12:20:09;002;002;
26720;PMS1003;15950;51.112;6.966;2024-02-04T12:23:09;000;000;
26720;PMS1003;15950;51.112;6.966;2024-02-04T12:26:09;000;000;
26720;PMS1003;15950;51.112;6.966;2024-02-04T12:29:09;000;000;
26720;PMS1003;15950;51.112;6.966;2024-02-04T12:32:09;000;000;
26720;PMS1003;15950;51.112;6.966;2024-02-04T12:38:09;001;001;
26720;PMS1003;15950;51.112;6.966;2024-02-04T12:41:12;000;000;
26720;PMS1003;15950;51.112;6.966;2024-02-04T12:44:09;000;000;
26720;PMS1003;15950;51.112;6.966;2024-02-04T12:47:09;000;000;
26720;PMS1003;15950;51.112;6.966;2024-02-04T12:50:10;000;000;
26720;PMS1003;15950;51.112;6.966;2024-02-04T12:53:09;000;000;
26720;PMS1003;15950;51.112;6.966;2024-02-04T12:56:09;000;000;
26720;PMS1003;15950;51.112;6.966;2024-02-04T12:59:09;000;000;
26720;PMS1003;15950;51.112;6.966;2024-02-04T13:02:09;000;000;
26720;PMS1003;15950;51.112;6.966;2024-02-04T13:05:09;000;000;
26720;PMS1003;15950;51.112;6.966;2024-02-04T13:08:09;000;000;
26720;PMS1003;15950;51.112;6.966;2024-02-04T13:11:09;000;000;
26720;PMS1003;15950;51.112;6.966;2024-02-04T13:14:09;000;000;
26720;PMS1003;15950;51.112;6.966;2024-02-04T13:17:09;000;000;
26720;PMS1003;15950;51.112;6.966;2024-02-04T13:20:09;000;000;
26720;PMS1003;15950;51.112;6.966;2024-02-04T13:23:09;000;000;
26720;PMS1003;15950;51.112;6.966;2024-02-04T13:26:09;000;000;
26720;PMS1003;15950;51.112;6.966;2024-02-04T13:29:09;000;000;
26720;PMS1003;15950;51.112;6.966;2024-02-04T13:32:09;003;002;
26720;PMS1003;15950;51.112;6.966;2024-02-04T13:35:09;000;000;
26720;PMS1003;15950;51.112;6.966;2024-02-04T13:38:09;000;000;
26720;PMS1003;15950;51.112;6.966;2024-02-04T13:41:09;000;000;
26720;PMS1003;15950;51.112;6.966;2024-02-04T13:44:09;000;000;
26720;PMS1003;15950;51.112;6.966;2024-02-04T13:47:09;002;002;
26720;PMS1003;15950;51.112;6.966;2024-02-04T13:50:09;002;001;
26720;PMS1003;15950;51.112;6.966;2024-02-04T13:53:09;000;000;
26720;PMS1003;15950;51.112;6.966;2024-02-04T13:56:09;000;000;
26720;PMS1003;15950;51.112;6.966;2024-02-04T13:59:09;000;000;
26720;PMS1003;15950;51.112;6.966;2024-02-04T14:02:09;000;000;
26720;PMS1003;15950;51.112;6.966;2024-02-04T14:05:09;000;000;
26720;PMS1003;15950;51.112;6.966;2024-02-04T14:08:09;000;000;
26720;PMS1003;15950;51.112;6.966;2024-02-04T14:11:09;000;000;
26720;PMS1003;15950;51.112;6.966;2024-02-04T14:14:09;001;001;
26720;PMS1003;15950;51.112;6.966;2024-02-04T14:17:09;000;000;
26720;PMS1003;15950;51.112;6.966;2024-02-04T14:20:09;000;000;
26720;PMS1003;15950;51.112;6.966;2024-02-04T14:23:09;000;000;
26720;PMS1003;15950;51.112;6.966;2024-02-04T14:26:15;000;000;
26720;PMS1003;15950;51.112;6.966;2024-02-04T14:29:12;000;000;
26720;PMS1003;15950;51.112;6.966;2024-02-04T14:32:09;000;000;
26720;PMS1003;15950;51.112;6.966;2024-02-04T14:35:09;000;000;
26720;PMS1003;15950;51.112;6.966;2024-02-04T14:38:09;000;000;
26720;PMS1003;15950;51.112;6.966;2024-02-04T14:41:09;000;000;
26720;PMS1003;15950;51.112;6.966;2024-02-04T14:44:09;000;000;
26720;PMS1003;15950;51.112;6.966;2024-02-04T14:47:09;000;000;
26720;PMS1003;15950;51.112;6.966;2024-02-04T14:50:09;000;000;
26720;PMS1003;15950;51.112;6.966;2024-02-04T14:53:09;000;000;
26720;PMS1003;15950;51.112;6.966;2024-02-04T14:56:09;001;001;
26720;PMS1003;15950;51.112;6.966;2024-02-04T14:59:09;000;000;
26720;PMS1003;15950;51.112;6.966;2024-02-04T15:02:09;000;000;
26720;PMS1003;15950;51.112;6.966;2024-02-04T15:05:09;000;000;
26720;PMS1003;15950;51.112;6.966;2024-02-04T15:08:09;000;000;
26720;PMS1003;15950;51.112;6.966;2024-02-04T15:11:09;000;000;
26720;PMS1003;15950;51.112;6.966;2024-02-04T15:14:09;000;000;
26720;PMS1003;15950;51.112;6.966;2024-02-04T15:17:09;000;000;
26720;PMS1003;15950;51.112;6.966;2024-02-04T15:20:09;000;000;
26720;PMS1003;15950;51.112;6.966;2024-02-04T15:23:09;000;000;
26720;PMS1003;15950;51.112;6.966;2024-02-04T15:26:11;000;000;
26720;PMS1003;15950;51.112;6.966;2024-02-04T15:29:09;000;000;
26720;PMS1003;15950;51.112;6.966;2024-02-04T15:32:09;000;000;
26720;PMS1003;15950;51.112;6.966;2024-02-04T15:35:09;000;000;
26720;PMS1003;15950;51.112;6.966;2024-02-04T15:38:09;000;000;
26720;PMS1003;15950;51.112;6.966;2024-02-04T15:41:09;000;000;
26720;PMS1003;15950;51.112;6.966;2024-02-04T15:44:09;000;000;
26720;PMS1003;15950;51.112;6.966;2024-02-04T15:47:09;000;000;
26720;PMS1003;15950;51.112;6.966;2024-02-04T15:50:09;000;000;
26720;PMS1003;15950;51.112;6.966;2024-02-04T15:53:09;000;000;
26720;PMS1003;15950;51.112;6.966;2024-02-04T15:56:09;000;000;
26720;PMS1003;15950;51.112;6.966;2024-02-04T15:59:09;000;000;
26720;PMS1003;15950;51.112;6.966;2024-02-04T16:02:09;000;000;
26720;PMS1003;15950;51.112;6.966;2024-02-04T16:05:12;000;000;
26720;PMS1003;15950;51.112;6.966;2024-02-04T16:08:09;000;000;
26720;PMS1003;15950;51.112;6.966;2024-02-04T16:11:11;000;000;
26720;PMS1003;15950;51.112;6.966;2024-02-04T16:14:09;000;000;
26720;PMS1003;15950;51.112;6.966;2024-02-04T16:17:11;000;000;
26720;PMS1003;15950;51.112;6.966;2024-02-04T16:20:09;000;000;
26720;PMS1003;15950;51.112;6.966;2024-02-04T16:23:09;000;000;
26720;PMS1003;15950;51.112;6.966;2024-02-04T16:26:09;000;000;
26720;PMS1003;15950;51.112;6.966;2024-02-04T16:29:09;000;000;
26720;PMS1003;15950;51.112;6.966;2024-02-04T16:32:09;000;000;
26720;PMS1003;15950;51.112;6.966;2024-02-04T16:35:09;000;000;
26720;PMS1003;15950;51.112;6.966;2024-02-04T16:38:09;000;000;
26720;PMS1003;15950;51.112;6.966;2024-02-04T16:41:09;000;000;
26720;PMS1003;15950;51.112;6.966;2024-02-04T16:44:09;000;000;
26720;PMS1003;15950;51.112;6.966;2024-02-04T16:47:09;000;000;
26720;PMS1003;15950;51.112;6.966;2024-02-04T16:50:09;000;000;
26720;PMS1003;15950;51.112;6.966;2024-02-04T16:53:09;001;001;
26720;PMS1003;15950;51.112;6.966;2024-02-04T16:56:09;000;000;
26720;PMS1003;15950;51.112;6.966;2024-02-04T16:59:09;000;000;
26720;PMS1003;15950;51.112;6.966;2024-02-04T17:02:09;000;000;
26720;PMS1003;15950;51.112;6.966;2024-02-04T17:05:09;000;000;
26720;PMS1003;15950;51.112;6.966;2024-02-04T17:08:09;000;000;
26720;PMS1003;15950;51.112;6.966;2024-02-04T17:11:09;000;000;
26720;PMS1003;15950;51.112;6.966;2024-02-04T17:14:09;000;000;
26720;PMS1003;15950;51.112;6.966;2024-02-04T17:17:11;002;001;
26720;PMS1003;15950;51.112;6.966;2024-02-04T17:20:13;000;000;
26720;PMS1003;15950;51.112;6.966;2024-02-04T17:23:09;000;000;
26720;PMS1003;15950;51.112;6.966;2024-02-04T17:26:09;000;000;
26720;PMS1003;15950;51.112;6.966;2024-02-04T17:29:09;000;000;
26720;PMS1003;15950;51.112;6.966;2024-02-04T17:32:10;000;000;
26720;PMS1003;15950;51.112;6.966;2024-02-04T17:35:09;000;000;
26720;PMS1003;15950;51.112;6.966;2024-02-04T17:38:09;000;000;
26720;PMS1003;15950;51.112;6.966;2024-02-04T17:41:09;000;000;
26720;PMS1003;15950;51.112;6.966;2024-02-04T17:44:09;000;000;
26720;PMS1003;15950;51.112;6.966;2024-02-04T17:47:09;000;000;
26720;PMS1003;15950;51.112;6.966;2024-02-04T17:50:09;000;000;
26720;PMS1003;15950;51.112;6.966;2024-02-04T17:53:09;000;000;
26720;PMS1003;15950;51.112;6.966;2024-02-04T17:56:13;000;000;
26720;PMS1003;15950;51.112;6.966;2024-02-04T17:59:09;000;000;
26720;PMS1003;15950;51.112;6.966;2024-02-04T18:02:09;001;001;
26720;PMS1003;15950;51.112;6.966;2024-02-04T18:05:09;000;000;
26720;PMS1003;15950;51.112;6.966;2024-02-04T18:08:09;000;000;
26720;PMS1003;15950;51.112;6.966;2024-02-04T18:14:09;000;000;
26720;PMS1003;15950;51.112;6.966;2024-02-04T18:17:09;000;000;
26720;PMS1003;15950;51.112;6.966;2024-02-04T18:20:12;000;000;
26720;PMS1003;15950;51.112;6.966;2024-02-04T18:23:09;000;000;
26720;PMS1003;15950;51.112;6.966;2024-02-04T18:29:09;000;000;
26720;PMS1003;15950;51.112;6.966;2024-02-04T18:32:09;000;000;
26720;PMS1003;15950;51.112;6.966;2024-02-04T18:35:09;000;000;
26720;PMS1003;15950;51.112;6.966;2024-02-04T18:38:09;000;000;
26720;PMS1003;15950;51.112;6.966;2024-02-04T18:41:09;000;000;
26720;PMS1003;15950;51.112;6.966;2024-02-04T18:44:09;000;000;
26720;PMS1003;15950;51.112;6.966;2024-02-04T18:47:09;000;000;
26720;PMS1003;15950;51.112;6.966;2024-02-04T18:50:10;002;001;
26720;PMS1003;15950;51.112;6.966;2024-02-04T18:53:09;000;000;
26720;PMS1003;15950;51.112;6.966;2024-02-04T18:56:09;002;002;
26720;PMS1003;15950;51.112;6.966;2024-02-04T18:59:09;004;004;
26720;PMS1003;15950;51.112;6.966;2024-02-04T19:02:09;002;001;
26720;PMS1003;15950;51.112;6.966;2024-02-04T19:05:09;000;000;
26720;PMS1003;15950;51.112;6.966;2024-02-04T19:08:09;000;000;
26720;PMS1003;15950;51.112;6.966;2024-02-04T19:11:08;000;000;
26720;PMS1003;15950;51.112;6.966;2024-02-04T19:14:09;000;000;
26720;PMS1003;15950;51.112;6.966;2024-02-04T19:17:08;000;000;
26720;PMS1003;15950;51.112;6.966;2024-02-04T19:20:10;009;006;
26720;PMS1003;15950;51.112;6.966;2024-02-04T19:23:09;000;000;
26720;PMS1003;15950;51.112;6.966;2024-02-04T19:26:08;000;000;
26720;PMS1003;15950;51.112;6.966;2024-02-04T19:29:08;000;000;
26720;PMS1003;15950;51.112;6.966;2024-02-04T19:32:09;000;000;
26720;PMS1003;15950;51.112;6.966;2024-02-04T19:35:08;000;000;
26720;PMS1003;15950;51.112;6.966;2024-02-04T19:38:08;000;000;
26720;PMS1003;15950;51.112;6.966;2024-02-04T19:41:08;000;000;